sensor_id;sensor_type;location;lat;lon;timestamp;P1;durP1;ratioP1;P2;durP2;ratioP2
5363;SDS011;2705;41.410;2.160;2023-11-21T12:01:36;8.48;;;1.95;;
5363;SDS011;2705;41.410;2.160;2023-11-21T12:04:24;3.30;;;2.00;;
5363;SDS011;2705;41.410;2.160;2023-11-21T12:07:02;6.10;;;1.60;;
5363;SDS011;2705;41.410;2.160;2023-11-21T12:09:32;5.23;;;1.90;;
5363;SDS011;2705;41.410;2.160;2023-11-21T12:12:02;0.70;;;0.70;;
5363;SDS011;2705;41.410;2.160;2023-11-21T12:14:33;3.63;;;2.00;;
5363;SDS011;2705;41.410;2.160;2023-11-21T12:17:04;2.53;;;1.50;;
5363;SDS011;2705;41.410;2.160;2023-11-21T12:19:33;2.23;;;1.80;;
5363;SDS011;2705;41.410;2.160;2023-11-21T12:22:03;4.47;;;1.80;;
5363;SDS011;2705;41.410;2.160;2023-11-21T12:24:34;7.17;;;1.70;;
5363;SDS011;2705;41.410;2.160;2023-11-21T12:27:04;5.77;;;1.70;;
5363;SDS011;2705;41.410;2.160;2023-11-21T12:29:33;4.50;;;1.50;;
5363;SDS011;2705;41.410;2.160;2023-11-21T12:32:05;4.77;;;1.67;;
5363;SDS011;2705;41.410;2.160;2023-11-21T12:34:34;4.70;;;2.10;;
5363;SDS011;2705;41.410;2.160;2023-11-21T12:37:05;6.13;;;2.00;;
5363;SDS011;2705;41.410;2.160;2023-11-21T12:39:36;1.90;;;1.50;;
5363;SDS011;2705;41.410;2.160;2023-11-21T12:42:05;3.50;;;1.67;;
5363;SDS011;2705;41.410;2.160;2023-11-21T12:44:34;5.53;;;1.80;;
5363;SDS011;2705;41.410;2.160;2023-11-21T12:47:04;3.97;;;1.70;;
5363;SDS011;2705;41.410;2.160;2023-11-21T12:49:34;3.67;;;2.07;;
5363;SDS011;2705;41.410;2.160;2023-11-21T12:52:03;3.23;;;1.73;;
5363;SDS011;2705;41.410;2.160;2023-11-21T12:54:35;6.73;;;1.80;;
5363;SDS011;2705;41.410;2.160;2023-11-21T12:57:04;3.30;;;1.73;;
5363;SDS011;2705;41.410;2.160;2023-11-21T12:59:35;2.40;;;1.80;;
5363;SDS011;2705;41.410;2.160;2023-11-21T13:02:09;3.57;;;2.23;;
5363;SDS011;2705;41.410;2.160;2023-11-21T13:04:41;12.53;;;6.00;;
5363;SDS011;2705;41.410;2.160;2023-11-21T13:07:11;3.00;;;2.10;;
5363;SDS011;2705;41.410;2.160;2023-11-21T13:09:43;9.40;;;2.20;;
5363;SDS011;2705;41.410;2.160;2023-11-21T13:12:13;3.17;;;1.67;;
5363;SDS011;2705;41.410;2.160;2023-11-21T13:14:45;4.47;;;2.27;;
5363;SDS011;2705;41.410;2.160;2023-11-21T13:17:14;3.83;;;1.70;;
5363;SDS011;2705;41.410;2.160;2023-11-21T13:19:43;4.53;;;1.97;;
5363;SDS011;2705;41.410;2.160;2023-11-21T13:22:12;1.07;;;0.83;;
5363;SDS011;2705;41.410;2.160;2023-11-21T13:24:43;3.17;;;1.60;;
5363;SDS011;2705;41.410;2.160;2023-11-21T13:27:12;0.80;;;0.77;;
5363;SDS011;2705;41.410;2.160;2023-11-21T13:29:42;0.73;;;0.70;;
5363;SDS011;2705;41.410;2.160;2023-11-21T13:32:11;0.70;;;0.60;;
5363;SDS011;2705;41.410;2.160;2023-11-21T13:34:43;0.70;;;0.60;;
5363;SDS011;2705;41.410;2.160;2023-11-21T13:37:14;0.77;;;0.70;;
5363;SDS011;2705;41.410;2.160;2023-11-21T13:39:45;0.70;;;0.60;;
5363;SDS011;2705;41.410;2.160;2023-11-21T13:42:18;0.80;;;0.73;;
5363;SDS011;2705;41.410;2.160;2023-11-21T13:44:50;0.80;;;0.70;;
5363;SDS011;2705;41.410;2.160;2023-11-21T13:47:25;0.80;;;0.70;;
5363;SDS011;2705;41.410;2.160;2023-11-21T13:49:57;0.70;;;0.70;;
5363;SDS011;2705;41.410;2.160;2023-11-21T13:52:28;2.57;;;1.20;;
5363;SDS011;2705;41.410;2.160;2023-11-21T13:55:02;7.47;;;2.70;;
5363;SDS011;2705;41.410;2.160;2023-11-21T13:57:33;7.47;;;2.63;;
5363;SDS011;2705;41.410;2.160;2023-11-21T14:00:03;8.57;;;2.23;;
5363;SDS011;2705;41.410;2.160;2023-11-21T14:02:38;9.47;;;3.00;;
5363;SDS011;2705;41.410;2.160;2023-11-21T14:05:10;18.50;;;3.80;;
5363;SDS011;2705;41.410;2.160;2023-11-21T14:07:41;7.00;;;3.00;;
5363;SDS011;2705;41.410;2.160;2023-11-21T14:10:16;9.50;;;4.17;;
5363;SDS011;2705;41.410;2.160;2023-11-21T14:12:49;10.67;;;3.00;;
5363;SDS011;2705;41.410;2.160;2023-11-21T14:15:19;13.83;;;2.90;;
5363;SDS011;2705;41.410;2.160;2023-11-21T14:17:49;9.63;;;3.43;;
5363;SDS011;2705;41.410;2.160;2023-11-21T14:20:19;8.83;;;3.60;;
5363;SDS011;2705;41.410;2.160;2023-11-21T14:22:48;11.27;;;3.90;;
5363;SDS011;2705;41.410;2.160;2023-11-21T14:25:19;14.10;;;2.40;;
5363;SDS011;2705;41.410;2.160;2023-11-21T14:27:49;9.27;;;2.80;;
5363;SDS011;2705;41.410;2.160;2023-11-21T14:30:19;7.90;;;2.70;;
5363;SDS011;2705;41.410;2.160;2023-11-21T14:32:49;9.70;;;2.73;;
5363;SDS011;2705;41.410;2.160;2023-11-21T14:35:19;6.80;;;2.60;;
5363;SDS011;2705;41.410;2.160;2023-11-21T14:37:48;7.13;;;2.83;;
5363;SDS011;2705;41.410;2.160;2023-11-21T14:40:20;13.30;;;2.60;;
5363;SDS011;2705;41.410;2.160;2023-11-21T14:42:51;7.30;;;3.50;;
5363;SDS011;2705;41.410;2.160;2023-11-21T14:45:24;14.20;;;3.30;;
5363;SDS011;2705;41.410;2.160;2023-11-21T14:47:54;9.43;;;4.97;;
5363;SDS011;2705;41.410;2.160;2023-11-21T14:50:33;7.03;;;2.90;;
5363;SDS011;2705;41.410;2.160;2023-11-21T14:53:37;23.50;;;2.80;;
5363;SDS011;2705;41.410;2.160;2023-11-21T14:58:57;9.10;;;2.60;;
5363;SDS011;2705;41.410;2.160;2023-11-21T15:01:31;12.90;;;2.60;;
5363;SDS011;2705;41.410;2.160;2023-11-21T15:04:13;6.60;;;2.90;;
5363;SDS011;2705;41.410;2.160;2023-11-21T15:06:52;9.33;;;2.47;;
5363;SDS011;2705;41.410;2.160;2023-11-21T15:09:25;10.87;;;4.00;;
5363;SDS011;2705;41.410;2.160;2023-11-21T15:12:09;12.10;;;3.83;;
5363;SDS011;2705;41.410;2.160;2023-11-21T15:14:43;17.33;;;3.50;;
5363;SDS011;2705;41.410;2.160;2023-11-21T15:17:12;13.33;;;3.30;;
5363;SDS011;2705;41.410;2.160;2023-11-21T15:19:50;5.87;;;2.73;;
5363;SDS011;2705;41.410;2.160;2023-11-21T15:22:19;6.90;;;2.70;;
5363;SDS011;2705;41.410;2.160;2023-11-21T15:24:49;5.03;;;3.00;;
5363;SDS011;2705;41.410;2.160;2023-11-21T15:27:22;12.10;;;3.47;;
5363;SDS011;2705;41.410;2.160;2023-11-21T15:29:52;7.23;;;2.53;;
5363;SDS011;2705;41.410;2.160;2023-11-21T15:32:21;5.70;;;2.33;;
5363;SDS011;2705;41.410;2.160;2023-11-21T15:34:50;4.97;;;2.37;;
5363;SDS011;2705;41.410;2.160;2023-11-21T15:37:19;6.90;;;2.73;;
5363;SDS011;2705;41.410;2.160;2023-11-21T15:39:48;6.47;;;2.53;;
5363;SDS011;2705;41.410;2.160;2023-11-21T15:42:18;11.03;;;3.90;;
5363;SDS011;2705;41.410;2.160;2023-11-21T15:44:48;15.57;;;3.63;;
5363;SDS011;2705;41.410;2.160;2023-11-21T15:47:18;7.70;;;3.60;;
5363;SDS011;2705;41.410;2.160;2023-11-21T15:49:47;8.87;;;3.37;;
5363;SDS011;2705;41.410;2.160;2023-11-21T15:52:17;18.50;;;4.50;;
5363;SDS011;2705;41.410;2.160;2023-11-21T15:54:46;16.63;;;5.80;;
5363;SDS011;2705;41.410;2.160;2023-11-21T15:57:15;7.27;;;3.30;;
5363;SDS011;2705;41.410;2.160;2023-11-21T15:59:45;12.83;;;3.43;;
5363;SDS011;2705;41.410;2.160;2023-11-21T16:02:16;10.33;;;3.73;;
5363;SDS011;2705;41.410;2.160;2023-11-21T16:04:45;10.20;;;4.00;;
5363;SDS011;2705;41.410;2.160;2023-11-21T16:07:15;14.40;;;3.70;;
5363;SDS011;2705;41.410;2.160;2023-11-21T16:09:46;11.97;;;3.03;;
5363;SDS011;2705;41.410;2.160;2023-11-21T16:12:17;13.90;;;2.97;;
5363;SDS011;2705;41.410;2.160;2023-11-21T16:14:48;6.07;;;3.10;;
5363;SDS011;2705;41.410;2.160;2023-11-21T16:17:18;12.80;;;3.93;;
5363;SDS011;2705;41.410;2.160;2023-11-21T16:19:48;10.60;;;3.30;;
5363;SDS011;2705;41.410;2.160;2023-11-21T16:22:19;14.33;;;4.00;;
5363;SDS011;2705;41.410;2.160;2023-11-21T16:24:48;11.03;;;3.70;;
5363;SDS011;2705;41.410;2.160;2023-11-21T16:27:17;11.00;;;2.93;;
5363;SDS011;2705;41.410;2.160;2023-11-21T16:29:46;15.77;;;3.37;;
5363;SDS011;2705;41.410;2.160;2023-11-21T16:32:17;17.07;;;5.40;;
5363;SDS011;2705;41.410;2.160;2023-11-21T16:34:47;11.63;;;3.30;;
5363;SDS011;2705;41.410;2.160;2023-11-21T16:37:16;16.95;;;3.90;;
5363;SDS011;2705;41.410;2.160;2023-11-21T16:39:45;18.63;;;3.50;;
5363;SDS011;2705;41.410;2.160;2023-11-21T16:42:14;10.13;;;4.40;;
5363;SDS011;2705;41.410;2.160;2023-11-21T16:44:45;10.60;;;3.87;;
5363;SDS011;2705;41.410;2.160;2023-11-21T16:47:17;15.03;;;4.50;;
5363;SDS011;2705;41.410;2.160;2023-11-21T16:49:46;16.40;;;7.87;;
5363;SDS011;2705;41.410;2.160;2023-11-21T16:52:15;21.93;;;6.37;;
5363;SDS011;2705;41.410;2.160;2023-11-21T16:54:49;23.97;;;5.23;;
5363;SDS011;2705;41.410;2.160;2023-11-21T16:57:18;20.50;;;5.60;;
5363;SDS011;2705;41.410;2.160;2023-11-21T16:59:49;16.03;;;5.53;;
5363;SDS011;2705;41.410;2.160;2023-11-21T17:02:18;24.90;;;6.27;;
5363;SDS011;2705;41.410;2.160;2023-11-21T17:04:48;20.27;;;5.20;;
5363;SDS011;2705;41.410;2.160;2023-11-21T17:07:17;13.03;;;5.47;;
5363;SDS011;2705;41.410;2.160;2023-11-21T17:09:48;29.67;;;5.30;;
5363;SDS011;2705;41.410;2.160;2023-11-21T17:12:18;14.93;;;5.13;;
5363;SDS011;2705;41.410;2.160;2023-11-21T17:14:47;39.57;;;6.90;;
5363;SDS011;2705;41.410;2.160;2023-11-21T17:17:17;25.87;;;6.27;;
5363;SDS011;2705;41.410;2.160;2023-11-21T17:19:46;17.13;;;9.73;;
5363;SDS011;2705;41.410;2.160;2023-11-21T17:22:15;15.73;;;5.40;;
5363;SDS011;2705;41.410;2.160;2023-11-21T17:24:46;12.03;;;3.83;;
5363;SDS011;2705;41.410;2.160;2023-11-21T17:27:15;0.70;;;0.70;;
5363;SDS011;2705;41.410;2.160;2023-11-21T17:29:44;0.70;;;0.70;;
5363;SDS011;2705;41.410;2.160;2023-11-21T17:32:14;0.70;;;0.63;;
5363;SDS011;2705;41.410;2.160;2023-11-21T17:34:46;21.87;;;1.63;;
5363;SDS011;2705;41.410;2.160;2023-11-21T17:37:16;0.80;;;0.80;;
5363;SDS011;2705;41.410;2.160;2023-11-21T17:39:45;0.80;;;0.80;;
5363;SDS011;2705;41.410;2.160;2023-11-21T17:42:14;0.70;;;0.70;;
5363;SDS011;2705;41.410;2.160;2023-11-21T17:44:43;0.80;;;0.80;;
5363;SDS011;2705;41.410;2.160;2023-11-21T17:47:13;1.27;;;1.17;;
5363;SDS011;2705;41.410;2.160;2023-11-21T17:49:46;18.93;;;5.40;;
5363;SDS011;2705;41.410;2.160;2023-11-21T17:52:16;14.53;;;4.63;;
5363;SDS011;2705;41.410;2.160;2023-11-21T17:54:47;20.00;;;5.30;;
